createdAt,value
2023-02-19T00:01:32.510Z,89.95
2023-02-19T00:05:00.812Z,90.09
2023-02-19T00:08:47.432Z,89.78
2023-02-19T00:12:01.967Z,89.90
2023-02-19T00:15:40.252Z,89.94
2023-02-19T00:18:30.833Z,90.06
2023-02-19T00:21:30.832Z,90.12
2023-02-19T00:24:01.801Z,90.00
2023-02-19T00:26:30.204Z,90.00
2023-02-19T00:28:59.762Z,90.21
2023-02-19T00:31:32.696Z,90.17
2023-02-19T00:34:03.682Z,90.14
2023-02-19T00:36:35.173Z,90.00
2023-02-19T00:39:04.079Z,90.03
2023-02-19T00:41:33.138Z,89.98
2023-02-19T00:44:03.076Z,89.94
2023-02-19T00:46:34.431Z,90.01
2023-02-19T00:49:05.582Z,90.30
2023-02-19T00:51:36.292Z,90.05
2023-02-19T00:54:05.330Z,90.05
2023-02-19T00:56:33.843Z,90.13
2023-02-19T00:59:02.392Z,90.04
2023-02-19T01:01:32.323Z,90.05
2023-02-19T01:04:00.833Z,90.33
2023-02-19T01:06:31.640Z,90.05
2023-02-19T01:09:00.228Z,90.37
2023-02-19T01:11:28.452Z,90.38
2023-02-19T01:13:58.882Z,90.31
2023-02-19T01:16:27.628Z,90.35
2023-02-19T01:18:56.943Z,90.12
2023-02-19T01:21:26.741Z,90.37
2023-02-19T01:23:55.738Z,90.45
2023-02-19T01:26:27.779Z,90.59
2023-02-19T01:28:56.398Z,90.57
2023-02-19T01:31:25.343Z,90.41
2023-02-19T01:33:55.766Z,90.46
2023-02-19T01:36:24.992Z,90.61
2023-02-19T01:38:53.670Z,90.67
2023-02-19T01:41:23.910Z,90.42
2023-02-19T01:44:01.387Z,90.49
2023-02-19T01:46:31.896Z,90.48
2023-02-19T01:49:04.439Z,90.40
2023-02-19T01:51:35.220Z,90.40
2023-02-19T01:54:07.293Z,90.48
2023-02-19T01:56:37.772Z,90.34
2023-02-19T01:59:07.115Z,90.46
2023-02-19T02:01:37.533Z,90.61
2023-02-19T02:04:07.331Z,90.35
2023-02-19T02:06:41.978Z,90.72
2023-02-19T02:09:29.207Z,90.60
2023-02-19T02:11:57.553Z,90.73
2023-02-19T02:14:29.466Z,90.61
2023-02-19T02:17:08.932Z,90.57
2023-02-19T02:20:01.081Z,90.62
2023-02-19T02:22:35.864Z,90.54
2023-02-19T02:25:39.799Z,90.79
2023-02-19T02:28:22.211Z,90.57
2023-02-19T02:30:54.462Z,90.52
2023-02-19T02:33:32.731Z,90.76
2023-02-19T02:36:05.620Z,90.84
2023-02-19T02:38:38.449Z,90.84
2023-02-19T02:41:07.717Z,90.72
2023-02-19T02:43:35.983Z,90.50
2023-02-19T02:46:05.082Z,90.74
2023-02-19T02:48:38.610Z,90.69
2023-02-19T02:51:14.757Z,90.69
2023-02-19T02:54:21.552Z,90.88
2023-02-19T02:56:50.932Z,91.07
2023-02-19T02:59:21.847Z,90.89
2023-02-19T03:02:11.901Z,90.97
2023-02-19T03:05:08.229Z,90.96
2023-02-19T03:07:39.235Z,91.16
2023-02-19T03:10:13.128Z,91.16
2023-02-19T03:13:02.928Z,91.25
2023-02-19T03:15:54.696Z,91.37
2023-02-19T03:18:44.594Z,91.47
2023-02-19T03:21:15.347Z,91.54
2023-02-19T03:24:03.412Z,91.47
2023-02-19T03:26:33.285Z,91.53
2023-02-19T03:29:23.022Z,91.56
2023-02-19T03:31:56.111Z,91.83
2023-02-19T03:34:26.346Z,91.76
2023-02-19T03:37:02.843Z,91.93
2023-02-19T03:39:32.011Z,92.02
2023-02-19T03:42:08.522Z,92.08
2023-02-19T03:44:41.691Z,91.89
2023-02-19T03:47:16.930Z,92.07
2023-02-19T03:49:49.741Z,92.09
2023-02-19T03:52:27.602Z,92.07
2023-02-19T03:55:03.814Z,92.12
2023-02-19T03:57:38.955Z,92.14
2023-02-19T04:00:13.641Z,92.05
2023-02-19T04:02:50.375Z,92.29
2023-02-19T04:05:22.302Z,92.28
2023-02-19T04:07:54.700Z,92.37
2023-02-19T04:10:28.224Z,92.46
2023-02-19T04:13:01.259Z,92.26
2023-02-19T04:15:33.234Z,92.52
2023-02-19T04:18:07.486Z,92.38
2023-02-19T04:20:39.956Z,92.56
2023-02-19T04:23:08.906Z,92.69
2023-02-19T04:25:40.921Z,92.29
2023-02-19T04:28:09.831Z,92.58
2023-02-19T04:30:38.153Z,92.43
2023-02-19T04:33:06.378Z,92.43
2023-02-19T04:35:34.615Z,92.48
2023-02-19T04:38:02.858Z,92.40
2023-02-19T04:40:31.084Z,92.53
2023-02-19T04:42:59.319Z,92.50
2023-02-19T04:45:27.522Z,92.49
2023-02-19T04:47:57.836Z,92.37
2023-02-19T04:50:26.018Z,92.40
2023-02-19T04:52:54.196Z,92.38
2023-02-19T04:55:22.421Z,92.40
2023-02-19T04:57:50.623Z,92.35
2023-02-19T05:00:19.260Z,92.31
2023-02-19T05:02:47.530Z,92.59
2023-02-19T05:05:16.009Z,92.53
2023-02-19T05:07:44.242Z,92.37
2023-02-19T05:10:12.498Z,92.38
2023-02-19T05:12:40.735Z,92.69
2023-02-19T05:15:08.990Z,92.55
2023-02-19T05:17:37.220Z,92.46
2023-02-19T05:20:06.552Z,92.55
2023-02-19T05:22:34.772Z,92.60
2023-02-19T05:25:03.774Z,92.59
2023-02-19T05:27:43.041Z,92.74
2023-02-19T05:30:20.818Z,92.62
2023-02-19T05:32:49.028Z,92.69
2023-02-19T05:35:17.474Z,92.52
2023-02-19T05:37:45.618Z,92.67
2023-02-19T05:40:13.942Z,92.70
2023-02-19T05:42:42.195Z,92.68
2023-02-19T05:45:10.407Z,92.66
2023-02-19T05:47:39.659Z,92.78
2023-02-19T05:50:08.559Z,92.57
2023-02-19T05:52:36.796Z,92.85
2023-02-19T05:55:06.024Z,92.86
2023-02-19T05:57:39.028Z,92.93
2023-02-19T06:00:10.160Z,92.70
2023-02-19T06:02:40.480Z,92.92
2023-02-19T06:05:09.386Z,92.97
2023-02-19T06:07:38.775Z,93.00
2023-02-19T06:10:08.413Z,92.97
2023-02-19T06:12:36.661Z,93.00
2023-02-19T06:15:06.565Z,93.25
2023-02-19T06:17:35.192Z,93.17
2023-02-19T06:20:03.868Z,93.28
2023-02-19T06:22:32.101Z,93.02
2023-02-19T06:25:00.289Z,93.12
2023-02-19T06:27:28.564Z,93.16
2023-02-19T06:29:56.774Z,92.97
2023-02-19T06:32:25.024Z,93.10
2023-02-19T06:34:53.267Z,93.15
2023-02-19T06:37:21.475Z,93.32
2023-02-19T06:39:50.373Z,93.31
2023-02-19T06:42:19.248Z,93.22
2023-02-19T06:44:47.547Z,93.25
2023-02-19T06:47:15.827Z,93.20
2023-02-19T06:49:44.031Z,93.29
2023-02-19T06:52:12.248Z,93.62
2023-02-19T06:54:40.452Z,93.66
2023-02-19T06:57:08.666Z,93.40
2023-02-19T06:59:36.848Z,93.59
2023-02-19T07:02:05.804Z,93.91
2023-02-19T07:04:34.261Z,93.69
2023-02-19T07:07:02.795Z,93.86
2023-02-19T07:09:31.069Z,93.77
2023-02-19T07:11:59.256Z,93.94
2023-02-19T07:14:28.997Z,93.91
2023-02-19T07:16:57.204Z,94.18
2023-02-19T07:19:25.480Z,94.32
2023-02-19T07:21:53.769Z,94.45
2023-02-19T07:24:22.273Z,94.48
2023-02-19T07:26:50.781Z,94.48
2023-02-19T07:29:25.508Z,94.29
2023-02-19T07:31:53.904Z,94.30
2023-02-19T07:34:22.198Z,94.19
2023-02-19T07:36:50.398Z,94.10
2023-02-19T07:39:18.653Z,94.37
2023-02-19T07:41:46.908Z,94.42
2023-02-19T07:44:27.006Z,94.20
2023-02-19T07:46:55.280Z,94.32
2023-02-19T07:49:23.535Z,94.33
2023-02-19T07:51:51.886Z,94.23
2023-02-19T07:54:20.208Z,94.18
2023-02-19T07:56:48.452Z,94.48
2023-02-19T07:59:18.739Z,94.66
2023-02-19T08:02:05.041Z,94.49
2023-02-19T08:04:33.323Z,94.34
2023-02-19T08:07:01.561Z,94.21
2023-02-19T08:09:29.861Z,93.89
2023-02-19T08:12:30.482Z,93.05
2023-02-19T08:14:58.686Z,92.70
2023-02-19T08:17:27.234Z,92.77
2023-02-19T08:19:57.599Z,92.73
2023-02-19T08:22:25.932Z,92.64
2023-02-19T08:24:54.239Z,92.62
2023-02-19T08:27:22.464Z,92.54
2023-02-19T08:29:50.704Z,92.66
2023-02-19T08:32:18.888Z,92.85
2023-02-19T08:34:47.141Z,92.84
2023-02-19T08:37:15.318Z,92.79
2023-02-19T08:39:43.563Z,92.87
2023-02-19T08:42:12.008Z,92.80
2023-02-19T08:44:40.222Z,92.85
2023-02-19T08:47:08.447Z,93.00
2023-02-19T08:49:36.666Z,92.77
2023-02-19T08:52:04.881Z,92.88
2023-02-19T08:54:33.136Z,92.95
2023-02-19T08:57:01.344Z,92.99
2023-02-19T08:59:29.869Z,92.94
2023-02-19T09:01:59.247Z,92.80
2023-02-19T09:04:27.496Z,92.49
2023-02-19T09:06:55.763Z,92.38
2023-02-19T09:09:23.954Z,91.93
2023-02-19T09:11:52.229Z,91.19
2023-02-19T09:14:20.410Z,90.38
2023-02-19T09:16:48.676Z,89.97
2023-02-19T09:19:16.847Z,89.98
2023-02-19T09:21:45.038Z,90.07
2023-02-19T09:24:13.318Z,90.08
2023-02-19T09:26:44.382Z,89.50
2023-02-19T09:29:12.568Z,89.68
2023-02-19T09:31:40.889Z,89.31
2023-02-19T09:34:09.439Z,89.40
2023-02-19T09:36:38.389Z,89.54
2023-02-19T09:39:11.825Z,89.01
2023-02-19T09:41:45.709Z,89.38
2023-02-19T09:44:20.516Z,89.46
2023-02-19T09:46:52.589Z,89.45
2023-02-19T09:49:26.402Z,89.48
2023-02-19T09:51:59.498Z,89.35
2023-02-19T09:54:31.353Z,89.48
2023-02-19T09:57:02.152Z,89.65
2023-02-19T09:59:36.646Z,89.63
2023-02-19T10:02:14.041Z,89.18
2023-02-19T10:05:30.332Z,89.05
2023-02-19T10:09:17.878Z,89.25
2023-02-19T10:11:48.229Z,89.46
2023-02-19T10:14:20.336Z,89.39
2023-02-19T10:16:49.774Z,89.11
2023-02-19T10:19:18.135Z,89.27
2023-02-19T10:21:46.496Z,89.02
2023-02-19T10:24:20.131Z,89.28
2023-02-19T10:26:50.216Z,88.61
2023-02-19T10:29:19.396Z,88.69
2023-02-19T10:31:48.138Z,89.16
2023-02-19T10:34:21.485Z,89.14
2023-02-19T10:36:51.910Z,89.12
2023-02-19T10:39:41.366Z,89.21
2023-02-19T10:42:19.581Z,89.64
2023-02-19T10:44:53.574Z,89.97
2023-02-19T10:47:25.188Z,89.70
2023-02-19T10:49:54.930Z,89.00
2023-02-19T10:52:26.429Z,88.92
2023-02-19T10:54:57.601Z,88.97
2023-02-19T10:57:33.884Z,89.00
2023-02-19T11:00:18.616Z,89.39
2023-02-19T11:02:46.967Z,89.25
2023-02-19T11:05:19.836Z,89.41
2023-02-19T11:07:50.239Z,89.44
2023-02-19T11:10:27.054Z,89.14
2023-02-19T11:12:58.707Z,89.23
2023-02-19T11:15:28.050Z,88.64
2023-02-19T11:17:58.887Z,87.92
2023-02-19T11:20:29.039Z,87.63
2023-02-19T11:23:01.308Z,87.29
2023-02-19T11:25:30.759Z,87.35
2023-02-19T11:28:06.144Z,87.34
2023-02-19T11:30:38.161Z,87.85
2023-02-19T11:33:26.769Z,88.10
2023-02-19T11:36:00.468Z,87.89
2023-02-19T11:38:29.098Z,87.98
2023-02-19T11:41:04.910Z,87.82
2023-02-19T11:43:47.784Z,87.28
2023-02-19T11:46:22.230Z,86.99
2023-02-19T11:49:01.951Z,86.24
2023-02-19T11:51:52.742Z,86.00
2023-02-19T11:54:35.641Z,86.81
2023-02-19T11:57:15.562Z,87.02
2023-02-19T11:59:48.441Z,87.09
2023-02-19T12:02:50.069Z,86.42
2023-02-19T12:05:28.914Z,86.55
2023-02-19T12:08:29.847Z,86.32
2023-02-19T12:11:11.019Z,86.04
2023-02-19T12:13:57.679Z,85.47
2023-02-19T12:16:31.299Z,85.39
2023-02-19T12:19:25.312Z,86.03
2023-02-19T12:22:06.074Z,85.56
2023-02-19T12:24:59.606Z,85.87
2023-02-19T12:27:39.705Z,86.46
2023-02-19T12:30:26.703Z,86.81
2023-02-19T12:33:25.692Z,86.69
2023-02-19T12:36:05.822Z,87.29
2023-02-19T12:38:42.822Z,86.91
2023-02-19T12:41:21.351Z,86.81
2023-02-19T12:43:56.552Z,86.66
2023-02-19T12:46:31.988Z,86.52
2023-02-19T12:49:09.400Z,86.53
2023-02-19T12:51:44.265Z,86.65
2023-02-19T12:54:22.902Z,86.51
2023-02-19T12:56:58.964Z,86.59
2023-02-19T12:59:33.343Z,86.72
2023-02-19T13:02:12.559Z,86.81
2023-02-19T13:04:47.125Z,86.56
2023-02-19T13:07:20.256Z,86.73
2023-02-19T13:09:54.223Z,86.60
2023-02-19T13:12:26.633Z,86.52
2023-02-19T13:14:59.285Z,86.20
2023-02-19T13:17:34.556Z,85.44
2023-02-19T13:20:15.150Z,85.43
2023-02-19T13:23:09.062Z,85.00
2023-02-19T13:25:49.618Z,85.19
2023-02-19T13:28:31.965Z,84.89
2023-02-19T13:31:25.567Z,85.64
2023-02-19T13:34:07.676Z,85.25
2023-02-19T13:36:50.022Z,84.58
2023-02-19T13:39:24.493Z,84.61
2023-02-19T13:41:55.604Z,84.58
2023-02-19T13:44:28.678Z,84.36
2023-02-19T13:46:57.568Z,84.61
2023-02-19T13:49:41.516Z,84.61
2023-02-19T13:52:40.569Z,84.01
2023-02-19T13:55:46.518Z,83.80
2023-02-19T13:58:52.993Z,83.44
2023-02-19T14:02:13.002Z,83.92
2023-02-19T14:04:53.542Z,84.42
2023-02-19T14:07:46.987Z,84.51
2023-02-19T14:10:51.017Z,84.89
2023-02-19T14:13:50.587Z,84.80
2023-02-19T14:16:50.476Z,84.47
2023-02-19T14:19:51.110Z,84.24
2023-02-19T14:23:01.155Z,84.43
2023-02-19T14:25:35.142Z,84.10
2023-02-19T14:28:06.584Z,83.78
2023-02-19T14:30:43.282Z,84.22
2023-02-19T14:33:11.853Z,83.81
2023-02-19T14:35:43.053Z,83.49
2023-02-19T14:38:18.024Z,83.54
2023-02-19T14:40:48.121Z,83.76
2023-02-19T14:43:19.514Z,83.69
2023-02-19T14:45:51.143Z,83.36
2023-02-19T14:48:21.479Z,83.40
2023-02-19T14:50:53.816Z,83.56
2023-02-19T14:53:24.452Z,83.38
2023-02-19T14:55:54.783Z,83.69
2023-02-19T14:58:28.229Z,83.06
2023-02-19T15:00:56.690Z,82.96
2023-02-19T15:03:28.654Z,83.04
2023-02-19T15:05:58.380Z,82.26
2023-02-19T15:08:32.238Z,81.76
2023-02-19T15:11:02.520Z,81.87
2023-02-19T15:13:31.719Z,81.74
2023-02-19T15:16:01.333Z,81.51
2023-02-19T15:18:34.871Z,81.43
2023-02-19T15:21:06.222Z,81.22
2023-02-19T15:23:36.637Z,81.32
2023-02-19T15:26:05.248Z,81.43
2023-02-19T15:28:34.495Z,81.52
2023-02-19T15:31:15.278Z,81.62
2023-02-19T15:33:51.713Z,81.37
2023-02-19T15:36:27.103Z,81.51
2023-02-19T15:38:58.763Z,81.28
2023-02-19T15:41:29.529Z,80.83
2023-02-19T15:44:06.896Z,81.13
2023-02-19T15:46:37.160Z,81.14
2023-02-19T15:49:13.358Z,80.92
2023-02-19T15:51:46.879Z,80.38
2023-02-19T15:54:27.271Z,80.72
2023-02-19T15:56:59.006Z,80.48
2023-02-19T15:59:35.720Z,80.91
2023-02-19T16:02:05.585Z,80.83
2023-02-19T16:04:35.226Z,81.10
2023-02-19T16:07:03.844Z,81.15
2023-02-19T16:09:34.766Z,81.10
2023-02-19T16:12:18.578Z,80.97
2023-02-19T16:14:48.520Z,81.02
2023-02-19T16:17:20.193Z,81.08
2023-02-19T16:19:53.460Z,80.62
2023-02-19T16:22:24.372Z,80.62
2023-02-19T16:24:55.445Z,81.04
2023-02-19T16:27:33.169Z,80.80
2023-02-19T16:30:07.456Z,80.42
2023-02-19T16:32:35.770Z,80.68
2023-02-19T16:35:04.161Z,80.72
2023-02-19T16:37:41.571Z,80.55
2023-02-19T16:40:50.518Z,80.70
2023-02-19T16:43:30.687Z,80.48
2023-02-19T16:46:01.269Z,80.69
2023-02-19T16:48:30.236Z,80.26
2023-02-19T16:50:59.079Z,80.18
2023-02-19T16:53:28.661Z,80.20
2023-02-19T16:55:57.006Z,80.08
2023-02-19T16:58:25.282Z,79.50
2023-02-19T17:00:53.677Z,79.50
2023-02-19T17:03:24.558Z,79.58
2023-02-19T17:05:53.732Z,79.67
2023-02-19T17:08:34.557Z,79.53
2023-02-19T17:11:05.662Z,79.58
2023-02-19T17:13:33.965Z,79.50
2023-02-19T17:16:02.792Z,79.21
2023-02-19T17:18:31.109Z,79.42
2023-02-19T17:21:10.562Z,79.14
2023-02-19T17:23:41.290Z,79.28
2023-02-19T17:26:13.545Z,79.35
2023-02-19T17:28:41.764Z,79.37
2023-02-19T17:31:11.181Z,79.55
2023-02-19T17:33:39.913Z,79.53
2023-02-19T17:36:15.765Z,79.35
2023-02-19T17:38:44.161Z,79.82
2023-02-19T17:41:12.816Z,79.93
2023-02-19T17:43:41.289Z,79.76
2023-02-19T17:46:15.300Z,79.98
2023-02-19T17:48:43.552Z,80.39
2023-02-19T17:51:12.315Z,80.44
2023-02-19T17:53:41.191Z,80.32
2023-02-19T17:56:11.487Z,80.56
2023-02-19T17:58:42.538Z,80.95
2023-02-19T18:01:13.228Z,80.74
2023-02-19T18:03:41.795Z,80.91
2023-02-19T18:06:32.141Z,80.80
2023-02-19T18:09:17.561Z,80.94
2023-02-19T18:11:46.331Z,81.16
2023-02-19T18:14:14.684Z,81.37
2023-02-19T18:16:49.399Z,81.30
2023-02-19T18:19:18.999Z,81.55
2023-02-19T18:21:49.756Z,81.53
2023-02-19T18:24:18.853Z,81.79
2023-02-19T18:26:47.048Z,81.83
2023-02-19T18:29:15.500Z,82.02
2023-02-19T18:31:44.067Z,82.14
2023-02-19T18:34:18.457Z,82.17
2023-02-19T18:36:46.930Z,82.45
2023-02-19T18:39:15.744Z,82.37
2023-02-19T18:41:48.885Z,82.46
2023-02-19T18:44:20.990Z,82.76
2023-02-19T18:46:49.902Z,82.84
2023-02-19T18:49:18.266Z,82.94
2023-02-19T18:51:46.975Z,83.04
2023-02-19T18:54:15.440Z,83.14
2023-02-19T18:56:45.230Z,83.10
2023-02-19T18:59:14.178Z,83.19
2023-02-19T19:01:43.654Z,83.44
2023-02-19T19:04:12.227Z,83.50
2023-02-19T19:06:40.516Z,83.61
2023-02-19T19:09:08.986Z,83.58
2023-02-19T19:11:37.585Z,83.64
2023-02-19T19:14:06.252Z,83.77
2023-02-19T19:16:34.653Z,83.74
2023-02-19T19:19:03.284Z,83.80
2023-02-19T19:21:31.951Z,83.99
2023-02-19T19:24:00.207Z,83.81
2023-02-19T19:26:28.747Z,83.91
2023-02-19T19:28:57.245Z,83.83
2023-02-19T19:54:21.710Z,82.58
2023-02-19T19:56:50.258Z,82.67
2023-02-19T19:59:19.185Z,82.64
2023-02-19T20:01:51.608Z,82.89
2023-02-19T20:04:21.607Z,83.06
2023-02-19T20:06:50.526Z,83.14
2023-02-19T20:09:24.475Z,83.41
2023-02-19T20:11:53.933Z,83.51
2023-02-19T20:14:23.731Z,83.69
2023-02-19T20:16:52.397Z,83.69
2023-02-19T20:19:21.197Z,83.73
2023-02-19T20:21:54.291Z,83.67
2023-02-19T20:24:28.801Z,83.97
2023-02-19T20:26:59.517Z,83.97
2023-02-19T20:29:29.177Z,84.05
2023-02-19T20:31:59.232Z,84.01
2023-02-19T20:34:29.978Z,84.00
2023-02-19T20:36:58.381Z,84.23
2023-02-19T20:39:28.511Z,84.27
2023-02-19T20:41:58.659Z,84.12
2023-02-19T20:44:28.376Z,84.37
2023-02-19T20:46:58.226Z,84.42
2023-02-19T20:49:28.569Z,84.34
2023-02-19T20:51:58.944Z,84.53
2023-02-19T20:54:28.862Z,84.46
2023-02-19T20:56:58.797Z,84.43
2023-02-19T20:59:30.031Z,84.45
2023-02-19T21:01:58.655Z,84.52
2023-02-19T21:04:27.241Z,84.57
2023-02-19T21:06:55.641Z,84.52
2023-02-19T21:09:24.206Z,84.32
2023-02-19T21:11:52.714Z,84.66
2023-02-19T21:14:20.962Z,84.82
2023-02-19T21:16:49.221Z,84.89
2023-02-19T21:19:17.501Z,84.75
2023-02-19T21:21:45.759Z,84.69
2023-02-19T21:24:15.193Z,84.88
2023-02-19T21:26:44.055Z,84.92
2023-02-19T21:29:18.167Z,84.92
2023-02-19T21:31:48.232Z,84.82
2023-02-19T21:34:18.467Z,84.89
2023-02-19T21:36:46.684Z,84.88
2023-02-19T21:39:17.262Z,84.90
2023-02-19T21:41:45.468Z,85.07
2023-02-19T21:44:14.007Z,84.78
2023-02-19T21:46:42.472Z,84.89
2023-02-19T21:49:11.509Z,84.96
2023-02-19T21:51:41.185Z,85.09
2023-02-19T21:54:15.365Z,84.89
2023-02-19T21:56:43.812Z,84.92
2023-02-19T21:59:13.023Z,84.97
2023-02-19T22:01:42.431Z,84.97
2023-02-19T22:04:13.504Z,85.03
2023-02-19T22:06:41.886Z,85.12
2023-02-19T22:09:12.943Z,85.26
2023-02-19T22:11:41.541Z,85.16
2023-02-19T22:14:09.891Z,85.34
2023-02-19T22:16:38.095Z,85.29
2023-02-19T22:19:06.333Z,85.15
2023-02-19T22:21:34.904Z,85.29
2023-02-19T22:24:03.971Z,85.20
2023-02-19T22:26:34.976Z,85.22
2023-02-19T22:29:06.319Z,85.46
2023-02-19T22:31:34.772Z,85.38
2023-02-19T22:34:03.837Z,85.42
2023-02-19T22:36:33.595Z,85.26
2023-02-19T22:39:03.172Z,85.53
2023-02-19T22:41:31.432Z,85.42
2023-02-19T22:43:59.699Z,85.48
2023-02-19T22:46:30.233Z,85.50
2023-02-19T22:49:01.962Z,85.49
2023-02-19T22:51:30.446Z,85.50
2023-02-19T22:54:00.817Z,85.59
2023-02-19T22:56:29.581Z,85.70
2023-02-19T22:58:58.294Z,85.63
2023-02-19T23:01:26.605Z,85.77
2023-02-19T23:03:56.348Z,85.68
2023-02-19T23:06:26.748Z,85.81
2023-02-19T23:08:57.503Z,85.78
2023-02-19T23:11:27.954Z,85.82
2023-02-19T23:13:56.530Z,85.80
2023-02-19T23:16:25.421Z,85.73
2023-02-19T23:18:54.465Z,85.81
2023-02-19T23:21:23.138Z,85.85
2023-02-19T23:23:51.432Z,85.79
2023-02-19T23:26:20.089Z,85.92
2023-02-19T23:28:48.281Z,85.82
2023-02-19T23:31:17.442Z,85.77
2023-02-19T23:33:46.182Z,86.10
2023-02-19T23:36:15.847Z,85.80
2023-02-19T23:38:45.069Z,85.97
2023-02-19T23:41:15.264Z,85.95
2023-02-19T23:43:44.109Z,85.83
2023-02-19T23:46:16.393Z,85.88
2023-02-19T23:48:45.254Z,85.74
2023-02-19T23:51:13.984Z,85.85
2023-02-19T23:53:42.219Z,86.07
2023-02-19T23:56:10.491Z,85.96
2023-02-19T23:58:38.802Z,85.99
